sensor_id;sensor_type;location;lat;lon;timestamp;P1;durP1;ratioP1;P2;durP2;ratioP2
31262;SDS011;17892;52.080;9.006;2023-07-09T00:01:11;3.30;;;2.20;;
31262;SDS011;17892;52.080;9.006;2023-07-09T00:03:42;3.35;;;2.10;;
31262;SDS011;17892;52.080;9.006;2023-07-09T00:06:16;4.53;;;2.08;;
31262;SDS011;17892;52.080;9.006;2023-07-09T00:08:43;3.13;;;2.00;;
31262;SDS011;17892;52.080;9.006;2023-07-09T00:11:12;3.90;;;2.33;;
31262;SDS011;17892;52.080;9.006;2023-07-09T00:13:40;3.00;;;1.67;;
31262;SDS011;17892;52.080;9.006;2023-07-09T00:16:13;3.08;;;1.73;;
31262;SDS011;17892;52.080;9.006;2023-07-09T00:18:48;4.05;;;2.10;;
31262;SDS011;17892;52.080;9.006;2023-07-09T00:21:15;3.50;;;1.65;;
31262;SDS011;17892;52.080;9.006;2023-07-09T00:23:46;3.55;;;1.85;;
31262;SDS011;17892;52.080;9.006;2023-07-09T00:26:14;3.22;;;2.03;;
31262;SDS011;17892;52.080;9.006;2023-07-09T00:28:42;3.55;;;1.70;;
31262;SDS011;17892;52.080;9.006;2023-07-09T00:31:12;3.67;;;1.90;;
31262;SDS011;17892;52.080;9.006;2023-07-09T00:33:41;3.45;;;1.77;;
31262;SDS011;17892;52.080;9.006;2023-07-09T00:36:11;3.53;;;2.00;;
31262;SDS011;17892;52.080;9.006;2023-07-09T00:38:41;3.67;;;2.08;;
31262;SDS011;17892;52.080;9.006;2023-07-09T00:41:19;4.75;;;2.10;;
31262;SDS011;17892;52.080;9.006;2023-07-09T00:43:49;3.58;;;2.10;;
31262;SDS011;17892;52.080;9.006;2023-07-09T00:48:45;3.40;;;1.90;;
31262;SDS011;17892;52.080;9.006;2023-07-09T00:51:19;4.22;;;1.92;;
31262;SDS011;17892;52.080;9.006;2023-07-09T00:53:47;3.60;;;1.90;;
31262;SDS011;17892;52.080;9.006;2023-07-09T00:56:27;3.53;;;2.38;;
31262;SDS011;17892;52.080;9.006;2023-07-09T00:59:03;3.60;;;2.03;;
31262;SDS011;17892;52.080;9.006;2023-07-09T01:01:33;3.35;;;1.92;;
31262;SDS011;17892;52.080;9.006;2023-07-09T01:03:59;4.70;;;2.10;;
31262;SDS011;17892;52.080;9.006;2023-07-09T01:06:31;3.75;;;2.10;;
31262;SDS011;17892;52.080;9.006;2023-07-09T01:09:04;3.95;;;2.08;;
31262;SDS011;17892;52.080;9.006;2023-07-09T01:11:31;3.65;;;1.80;;
31262;SDS011;17892;52.080;9.006;2023-07-09T01:13:59;4.55;;;2.00;;
31262;SDS011;17892;52.080;9.006;2023-07-09T01:16:28;3.17;;;2.00;;
31262;SDS011;17892;52.080;9.006;2023-07-09T01:18:57;2.88;;;1.70;;
31262;SDS011;17892;52.080;9.006;2023-07-09T01:21:23;3.40;;;2.20;;
31262;SDS011;17892;52.080;9.006;2023-07-09T01:23:49;4.15;;;1.90;;
31262;SDS011;17892;52.080;9.006;2023-07-09T01:26:17;3.47;;;1.90;;
31262;SDS011;17892;52.080;9.006;2023-07-09T01:28:46;3.08;;;1.60;;
31262;SDS011;17892;52.080;9.006;2023-07-09T01:31:14;3.63;;;2.00;;
31262;SDS011;17892;52.080;9.006;2023-07-09T01:33:40;4.47;;;2.00;;
31262;SDS011;17892;52.080;9.006;2023-07-09T01:36:10;3.38;;;2.00;;
31262;SDS011;17892;52.080;9.006;2023-07-09T01:38:42;3.60;;;2.20;;
31262;SDS011;17892;52.080;9.006;2023-07-09T01:41:08;3.35;;;2.22;;
31262;SDS011;17892;52.080;9.006;2023-07-09T01:43:38;3.35;;;1.90;;
31262;SDS011;17892;52.080;9.006;2023-07-09T01:46:06;3.20;;;1.92;;
31262;SDS011;17892;52.080;9.006;2023-07-09T01:48:33;2.92;;;1.70;;
31262;SDS011;17892;52.080;9.006;2023-07-09T01:51:06;2.95;;;1.83;;
31262;SDS011;17892;52.080;9.006;2023-07-09T01:53:34;3.17;;;1.98;;
31262;SDS011;17892;52.080;9.006;2023-07-09T01:56:01;3.35;;;2.22;;
31262;SDS011;17892;52.080;9.006;2023-07-09T01:58:28;3.35;;;1.83;;
31262;SDS011;17892;52.080;9.006;2023-07-09T02:00:56;4.05;;;2.50;;
31262;SDS011;17892;52.080;9.006;2023-07-09T02:03:23;2.83;;;1.80;;
31262;SDS011;17892;52.080;9.006;2023-07-09T02:05:51;3.17;;;1.95;;
31262;SDS011;17892;52.080;9.006;2023-07-09T02:08:18;3.45;;;2.00;;
31262;SDS011;17892;52.080;9.006;2023-07-09T02:10:45;2.80;;;1.70;;
31262;SDS011;17892;52.080;9.006;2023-07-09T02:13:13;2.92;;;1.63;;
31262;SDS011;17892;52.080;9.006;2023-07-09T02:15:39;3.30;;;1.80;;
31262;SDS011;17892;52.080;9.006;2023-07-09T02:18:08;3.67;;;2.20;;
31262;SDS011;17892;52.080;9.006;2023-07-09T02:20:35;3.33;;;1.85;;
31262;SDS011;17892;52.080;9.006;2023-07-09T02:23:01;3.40;;;1.70;;
31262;SDS011;17892;52.080;9.006;2023-07-09T02:25:27;3.03;;;1.80;;
31262;SDS011;17892;52.080;9.006;2023-07-09T02:27:53;3.53;;;2.20;;
31262;SDS011;17892;52.080;9.006;2023-07-09T02:30:19;3.50;;;1.92;;
31262;SDS011;17892;52.080;9.006;2023-07-09T02:32:45;3.03;;;1.70;;
31262;SDS011;17892;52.080;9.006;2023-07-09T02:35:10;3.53;;;1.70;;
31262;SDS011;17892;52.080;9.006;2023-07-09T02:37:36;3.17;;;1.70;;
31262;SDS011;17892;52.080;9.006;2023-07-09T02:40:02;3.30;;;2.10;;
31262;SDS011;17892;52.080;9.006;2023-07-09T02:42:29;3.08;;;1.77;;
31262;SDS011;17892;52.080;9.006;2023-07-09T02:44:55;3.83;;;2.08;;
31262;SDS011;17892;52.080;9.006;2023-07-09T02:47:21;3.97;;;1.90;;
31262;SDS011;17892;52.080;9.006;2023-07-09T02:49:47;4.00;;;1.95;;
31262;SDS011;17892;52.080;9.006;2023-07-09T02:52:13;3.08;;;1.88;;
31262;SDS011;17892;52.080;9.006;2023-07-09T02:54:39;3.50;;;1.90;;
31262;SDS011;17892;52.080;9.006;2023-07-09T02:57:04;2.83;;;1.65;;
31262;SDS011;17892;52.080;9.006;2023-07-09T02:59:31;6.28;;;1.83;;
31262;SDS011;17892;52.080;9.006;2023-07-09T03:01:57;3.17;;;1.83;;
31262;SDS011;17892;52.080;9.006;2023-07-09T03:04:24;3.65;;;1.80;;
31262;SDS011;17892;52.080;9.006;2023-07-09T03:06:50;3.97;;;2.20;;
31262;SDS011;17892;52.080;9.006;2023-07-09T03:09:17;3.60;;;1.80;;
31262;SDS011;17892;52.080;9.006;2023-07-09T03:11:44;4.80;;;2.13;;
31262;SDS011;17892;52.080;9.006;2023-07-09T03:14:10;3.08;;;2.03;;
31262;SDS011;17892;52.080;9.006;2023-07-09T03:16:36;3.92;;;2.00;;
31262;SDS011;17892;52.080;9.006;2023-07-09T03:19:02;3.63;;;1.88;;
31262;SDS011;17892;52.080;9.006;2023-07-09T03:21:29;3.10;;;1.75;;
31262;SDS011;17892;52.080;9.006;2023-07-09T03:23:55;3.17;;;1.90;;
31262;SDS011;17892;52.080;9.006;2023-07-09T03:26:21;3.28;;;1.98;;
31262;SDS011;17892;52.080;9.006;2023-07-09T03:28:48;3.40;;;2.10;;
31262;SDS011;17892;52.080;9.006;2023-07-09T03:31:14;3.25;;;1.88;;
31262;SDS011;17892;52.080;9.006;2023-07-09T03:33:39;3.13;;;2.00;;
31262;SDS011;17892;52.080;9.006;2023-07-09T03:36:05;3.38;;;2.20;;
31262;SDS011;17892;52.080;9.006;2023-07-09T03:38:31;3.45;;;1.83;;
31262;SDS011;17892;52.080;9.006;2023-07-09T03:40:57;2.92;;;1.92;;
31262;SDS011;17892;52.080;9.006;2023-07-09T03:43:23;2.92;;;1.58;;
31262;SDS011;17892;52.080;9.006;2023-07-09T03:45:49;3.30;;;1.85;;
31262;SDS011;17892;52.080;9.006;2023-07-09T03:48:16;4.03;;;1.70;;
31262;SDS011;17892;52.080;9.006;2023-07-09T03:50:45;5.65;;;2.08;;
31262;SDS011;17892;52.080;9.006;2023-07-09T03:53:12;3.90;;;1.98;;
31262;SDS011;17892;52.080;9.006;2023-07-09T03:55:39;3.05;;;1.83;;
31262;SDS011;17892;52.080;9.006;2023-07-09T03:58:04;3.92;;;2.20;;
31262;SDS011;17892;52.080;9.006;2023-07-09T04:00:31;3.63;;;2.22;;
31262;SDS011;17892;52.080;9.006;2023-07-09T04:02:57;3.45;;;2.20;;
31262;SDS011;17892;52.080;9.006;2023-07-09T04:05:23;3.53;;;2.22;;
31262;SDS011;17892;52.080;9.006;2023-07-09T04:07:49;3.28;;;2.15;;
31262;SDS011;17892;52.080;9.006;2023-07-09T04:10:15;3.53;;;1.90;;
31262;SDS011;17892;52.080;9.006;2023-07-09T04:12:41;3.42;;;2.00;;
31262;SDS011;17892;52.080;9.006;2023-07-09T04:15:07;3.95;;;2.58;;
31262;SDS011;17892;52.080;9.006;2023-07-09T04:17:34;3.97;;;2.30;;
31262;SDS011;17892;52.080;9.006;2023-07-09T04:20:00;3.00;;;1.77;;
31262;SDS011;17892;52.080;9.006;2023-07-09T04:22:30;3.20;;;1.80;;
31262;SDS011;17892;52.080;9.006;2023-07-09T04:24:57;2.97;;;1.98;;
31262;SDS011;17892;52.080;9.006;2023-07-09T04:27:23;3.53;;;2.05;;
31262;SDS011;17892;52.080;9.006;2023-07-09T04:29:52;3.15;;;2.00;;
31262;SDS011;17892;52.080;9.006;2023-07-09T04:32:18;3.53;;;2.10;;
31262;SDS011;17892;52.080;9.006;2023-07-09T04:34:44;3.10;;;1.75;;
31262;SDS011;17892;52.080;9.006;2023-07-09T04:37:10;3.65;;;2.13;;
31262;SDS011;17892;52.080;9.006;2023-07-09T04:39:37;3.92;;;2.42;;
31262;SDS011;17892;52.080;9.006;2023-07-09T04:42:04;3.67;;;2.45;;
31262;SDS011;17892;52.080;9.006;2023-07-09T04:44:31;4.00;;;2.40;;
31262;SDS011;17892;52.080;9.006;2023-07-09T04:46:57;3.72;;;2.03;;
31262;SDS011;17892;52.080;9.006;2023-07-09T04:49:23;3.67;;;2.25;;
31262;SDS011;17892;52.080;9.006;2023-07-09T04:51:49;4.30;;;2.42;;
31262;SDS011;17892;52.080;9.006;2023-07-09T04:54:14;3.60;;;2.30;;
31262;SDS011;17892;52.080;9.006;2023-07-09T04:56:40;4.28;;;2.60;;
31262;SDS011;17892;52.080;9.006;2023-07-09T04:59:09;4.63;;;2.63;;
31262;SDS011;17892;52.080;9.006;2023-07-09T05:01:36;3.80;;;2.13;;
31262;SDS011;17892;52.080;9.006;2023-07-09T05:04:02;3.65;;;2.35;;
31262;SDS011;17892;52.080;9.006;2023-07-09T05:06:28;4.00;;;2.53;;
31262;SDS011;17892;52.080;9.006;2023-07-09T05:08:54;3.40;;;2.20;;
31262;SDS011;17892;52.080;9.006;2023-07-09T05:11:20;4.10;;;2.47;;
31262;SDS011;17892;52.080;9.006;2023-07-09T05:13:46;4.18;;;2.70;;
31262;SDS011;17892;52.080;9.006;2023-07-09T05:16:11;3.60;;;1.90;;
31262;SDS011;17892;52.080;9.006;2023-07-09T05:18:37;4.35;;;2.20;;
31262;SDS011;17892;52.080;9.006;2023-07-09T05:21:03;3.78;;;2.30;;
31262;SDS011;17892;52.080;9.006;2023-07-09T05:23:28;3.97;;;2.05;;
31262;SDS011;17892;52.080;9.006;2023-07-09T05:25:57;4.43;;;2.63;;
31262;SDS011;17892;52.080;9.006;2023-07-09T05:28:25;3.30;;;2.05;;
31262;SDS011;17892;52.080;9.006;2023-07-09T05:30:51;3.60;;;2.03;;
31262;SDS011;17892;52.080;9.006;2023-07-09T05:33:18;4.03;;;2.45;;
31262;SDS011;17892;52.080;9.006;2023-07-09T05:35:43;4.68;;;2.28;;
31262;SDS011;17892;52.080;9.006;2023-07-09T05:38:11;4.05;;;2.47;;
31262;SDS011;17892;52.080;9.006;2023-07-09T05:40:38;4.05;;;2.33;;
31262;SDS011;17892;52.080;9.006;2023-07-09T05:43:04;3.78;;;2.47;;
31262;SDS011;17892;52.080;9.006;2023-07-09T05:45:30;3.92;;;2.17;;
31262;SDS011;17892;52.080;9.006;2023-07-09T05:47:57;4.90;;;2.40;;
31262;SDS011;17892;52.080;9.006;2023-07-09T05:50:24;3.80;;;2.50;;
31262;SDS011;17892;52.080;9.006;2023-07-09T05:52:51;9.13;;;2.85;;
31262;SDS011;17892;52.080;9.006;2023-07-09T05:55:17;4.20;;;2.70;;
31262;SDS011;17892;52.080;9.006;2023-07-09T05:57:42;3.95;;;2.92;;
31262;SDS011;17892;52.080;9.006;2023-07-09T06:00:08;4.05;;;2.88;;
31262;SDS011;17892;52.080;9.006;2023-07-09T06:02:35;4.22;;;2.55;;
31262;SDS011;17892;52.080;9.006;2023-07-09T06:05:01;4.80;;;3.00;;
31262;SDS011;17892;52.080;9.006;2023-07-09T06:07:27;3.83;;;2.50;;
31262;SDS011;17892;52.080;9.006;2023-07-09T06:09:53;3.60;;;2.50;;
31262;SDS011;17892;52.080;9.006;2023-07-09T06:12:18;4.10;;;2.50;;
31262;SDS011;17892;52.080;9.006;2023-07-09T06:14:45;3.88;;;2.50;;
31262;SDS011;17892;52.080;9.006;2023-07-09T06:17:11;3.97;;;2.40;;
31262;SDS011;17892;52.080;9.006;2023-07-09T06:19:38;4.25;;;3.05;;
31262;SDS011;17892;52.080;9.006;2023-07-09T06:22:04;4.72;;;2.47;;
31262;SDS011;17892;52.080;9.006;2023-07-09T06:24:31;5.05;;;2.95;;
31262;SDS011;17892;52.080;9.006;2023-07-09T06:26:56;4.20;;;2.55;;
31262;SDS011;17892;52.080;9.006;2023-07-09T06:29:23;4.45;;;2.85;;
31262;SDS011;17892;52.080;9.006;2023-07-09T06:31:50;5.55;;;2.90;;
31262;SDS011;17892;52.080;9.006;2023-07-09T06:34:15;4.07;;;2.33;;
31262;SDS011;17892;52.080;9.006;2023-07-09T06:36:41;3.75;;;2.53;;
31262;SDS011;17892;52.080;9.006;2023-07-09T06:39:07;3.78;;;3.05;;
31262;SDS011;17892;52.080;9.006;2023-07-09T06:41:32;4.45;;;2.65;;
31262;SDS011;17892;52.080;9.006;2023-07-09T06:44:03;3.80;;;2.78;;
31262;SDS011;17892;52.080;9.006;2023-07-09T06:46:33;3.70;;;2.63;;
31262;SDS011;17892;52.080;9.006;2023-07-09T06:48:59;3.50;;;2.45;;
31262;SDS011;17892;52.080;9.006;2023-07-09T06:51:26;4.63;;;2.85;;
31262;SDS011;17892;52.080;9.006;2023-07-09T06:53:52;3.90;;;2.72;;
31262;SDS011;17892;52.080;9.006;2023-07-09T06:56:18;3.67;;;2.58;;
31262;SDS011;17892;52.080;9.006;2023-07-09T06:58:43;4.28;;;2.55;;
31262;SDS011;17892;52.080;9.006;2023-07-09T07:01:11;3.95;;;2.65;;
31262;SDS011;17892;52.080;9.006;2023-07-09T07:03:37;3.92;;;2.78;;
31262;SDS011;17892;52.080;9.006;2023-07-09T07:06:03;4.18;;;3.00;;
31262;SDS011;17892;52.080;9.006;2023-07-09T07:08:33;4.65;;;2.75;;
31262;SDS011;17892;52.080;9.006;2023-07-09T07:11:00;4.53;;;3.00;;
31262;SDS011;17892;52.080;9.006;2023-07-09T07:13:33;3.95;;;2.83;;
31262;SDS011;17892;52.080;9.006;2023-07-09T07:16:02;3.90;;;2.53;;
31262;SDS011;17892;52.080;9.006;2023-07-09T07:20:55;4.55;;;3.25;;
31262;SDS011;17892;52.080;9.006;2023-07-09T07:23:21;4.20;;;2.70;;
31262;SDS011;17892;52.080;9.006;2023-07-09T07:25:48;3.90;;;2.75;;
31262;SDS011;17892;52.080;9.006;2023-07-09T07:28:14;4.45;;;3.08;;
31262;SDS011;17892;52.080;9.006;2023-07-09T07:30:40;4.88;;;3.00;;
31262;SDS011;17892;52.080;9.006;2023-07-09T07:33:07;3.85;;;2.83;;
31262;SDS011;17892;52.080;9.006;2023-07-09T07:35:33;4.63;;;3.28;;
31262;SDS011;17892;52.080;9.006;2023-07-09T07:37:58;4.00;;;3.00;;
31262;SDS011;17892;52.080;9.006;2023-07-09T07:40:24;4.60;;;3.42;;
31262;SDS011;17892;52.080;9.006;2023-07-09T07:42:50;5.43;;;2.90;;
31262;SDS011;17892;52.080;9.006;2023-07-09T07:45:16;3.88;;;2.38;;
31262;SDS011;17892;52.080;9.006;2023-07-09T07:47:42;4.28;;;2.55;;
31262;SDS011;17892;52.080;9.006;2023-07-09T07:50:08;4.40;;;3.33;;
31262;SDS011;17892;52.080;9.006;2023-07-09T07:52:34;3.67;;;2.83;;
31262;SDS011;17892;52.080;9.006;2023-07-09T07:55:07;4.10;;;2.80;;
31262;SDS011;17892;52.080;9.006;2023-07-09T07:57:34;4.75;;;3.30;;
31262;SDS011;17892;52.080;9.006;2023-07-09T08:00:00;4.78;;;3.03;;
31262;SDS011;17892;52.080;9.006;2023-07-09T08:02:25;6.15;;;2.53;;
31262;SDS011;17892;52.080;9.006;2023-07-09T08:04:51;4.13;;;2.67;;
31262;SDS011;17892;52.080;9.006;2023-07-09T08:07:18;5.22;;;3.00;;
31262;SDS011;17892;52.080;9.006;2023-07-09T08:09:45;4.22;;;2.65;;
31262;SDS011;17892;52.080;9.006;2023-07-09T08:12:12;5.93;;;3.28;;
31262;SDS011;17892;52.080;9.006;2023-07-09T08:14:39;5.45;;;2.83;;
31262;SDS011;17892;52.080;9.006;2023-07-09T08:17:07;4.78;;;3.10;;
31262;SDS011;17892;52.080;9.006;2023-07-09T08:19:43;3.70;;;2.78;;
31262;SDS011;17892;52.080;9.006;2023-07-09T08:22:18;4.25;;;3.28;;
31262;SDS011;17892;52.080;9.006;2023-07-09T08:24:47;4.80;;;3.10;;
31262;SDS011;17892;52.080;9.006;2023-07-09T08:27:14;3.80;;;2.90;;
31262;SDS011;17892;52.080;9.006;2023-07-09T08:29:40;4.72;;;3.40;;
31262;SDS011;17892;52.080;9.006;2023-07-09T08:32:07;4.13;;;3.08;;
31262;SDS011;17892;52.080;9.006;2023-07-09T08:34:34;5.22;;;2.92;;
31262;SDS011;17892;52.080;9.006;2023-07-09T08:37:01;4.38;;;3.10;;
31262;SDS011;17892;52.080;9.006;2023-07-09T08:42:10;4.10;;;2.53;;
31262;SDS011;17892;52.080;9.006;2023-07-09T08:45:24;4.22;;;3.00;;
31262;SDS011;17892;52.080;9.006;2023-07-09T08:52:41;4.50;;;3.05;;
31262;SDS011;17892;52.080;9.006;2023-07-09T08:57:44;3.85;;;2.78;;
31262;SDS011;17892;52.080;9.006;2023-07-09T09:00:41;5.35;;;3.13;;
31262;SDS011;17892;52.080;9.006;2023-07-09T09:05:54;4.22;;;3.00;;
31262;SDS011;17892;52.080;9.006;2023-07-09T09:14:19;4.60;;;3.08;;
31262;SDS011;17892;52.080;9.006;2023-07-09T09:16:53;5.13;;;3.38;;
31262;SDS011;17892;52.080;9.006;2023-07-09T09:19:28;4.10;;;3.30;;
31262;SDS011;17892;52.080;9.006;2023-07-09T09:22:03;4.47;;;3.25;;
31262;SDS011;17892;52.080;9.006;2023-07-09T09:27:28;4.90;;;2.90;;
31262;SDS011;17892;52.080;9.006;2023-07-09T09:29:55;3.72;;;3.10;;
31262;SDS011;17892;52.080;9.006;2023-07-09T09:32:42;4.13;;;2.70;;
31262;SDS011;17892;52.080;9.006;2023-07-09T09:35:13;3.92;;;3.20;;
31262;SDS011;17892;52.080;9.006;2023-07-09T09:37:50;4.95;;;2.47;;
31262;SDS011;17892;52.080;9.006;2023-07-09T09:40:19;4.10;;;2.47;;
31262;SDS011;17892;52.080;9.006;2023-07-09T09:42:48;6.32;;;3.30;;
31262;SDS011;17892;52.080;9.006;2023-07-09T09:45:19;4.95;;;2.80;;
31262;SDS011;17892;52.080;9.006;2023-07-09T09:47:51;3.92;;;2.70;;
31262;SDS011;17892;52.080;9.006;2023-07-09T09:50:19;4.00;;;2.97;;
31262;SDS011;17892;52.080;9.006;2023-07-09T09:52:47;4.25;;;2.85;;
31262;SDS011;17892;52.080;9.006;2023-07-09T09:57:49;4.35;;;2.88;;
31262;SDS011;17892;52.080;9.006;2023-07-09T10:00:18;3.92;;;3.05;;
31262;SDS011;17892;52.080;9.006;2023-07-09T10:02:48;4.43;;;2.70;;
31262;SDS011;17892;52.080;9.006;2023-07-09T10:05:15;3.45;;;2.42;;
31262;SDS011;17892;52.080;9.006;2023-07-09T10:07:43;4.05;;;2.97;;
31262;SDS011;17892;52.080;9.006;2023-07-09T10:10:52;3.65;;;2.13;;
31262;SDS011;17892;52.080;9.006;2023-07-09T10:13:43;3.40;;;2.33;;
31262;SDS011;17892;52.080;9.006;2023-07-09T10:22:16;4.60;;;3.08;;
31262;SDS011;17892;52.080;9.006;2023-07-09T10:25:02;4.63;;;3.08;;
31262;SDS011;17892;52.080;9.006;2023-07-09T10:39:03;4.05;;;2.83;;
31262;SDS011;17892;52.080;9.006;2023-07-09T10:41:35;3.53;;;2.40;;
31262;SDS011;17892;52.080;9.006;2023-07-09T10:46:55;3.92;;;2.55;;
31262;SDS011;17892;52.080;9.006;2023-07-09T10:49:29;3.50;;;2.17;;
31262;SDS011;17892;52.080;9.006;2023-07-09T10:52:06;3.60;;;2.30;;
31262;SDS011;17892;52.080;9.006;2023-07-09T11:03:18;2.97;;;2.20;;
31262;SDS011;17892;52.080;9.006;2023-07-09T11:05:50;4.22;;;2.33;;
31262;SDS011;17892;52.080;9.006;2023-07-09T11:08:50;3.58;;;3.05;;
31262;SDS011;17892;52.080;9.006;2023-07-09T11:11:10;4.25;;;2.83;;
31262;SDS011;17892;52.080;9.006;2023-07-09T11:13:58;3.90;;;2.50;;
31262;SDS011;17892;52.080;9.006;2023-07-09T11:16:34;4.43;;;2.40;;
31262;SDS011;17892;52.080;9.006;2023-07-09T11:19:04;3.85;;;2.45;;
31262;SDS011;17892;52.080;9.006;2023-07-09T11:21:40;4.07;;;2.60;;
31262;SDS011;17892;52.080;9.006;2023-07-09T11:24:26;3.45;;;2.78;;
31262;SDS011;17892;52.080;9.006;2023-07-09T11:27:00;4.75;;;3.25;;
31262;SDS011;17892;52.080;9.006;2023-07-09T11:29:26;5.50;;;3.22;;
31262;SDS011;17892;52.080;9.006;2023-07-09T11:31:53;5.63;;;2.92;;
31262;SDS011;17892;52.080;9.006;2023-07-09T11:34:20;6.57;;;3.38;;
31262;SDS011;17892;52.080;9.006;2023-07-09T11:36:59;4.88;;;3.50;;
31262;SDS011;17892;52.080;9.006;2023-07-09T11:39:27;4.50;;;2.58;;
31262;SDS011;17892;52.080;9.006;2023-07-09T11:45:18;4.93;;;2.88;;
31262;SDS011;17892;52.080;9.006;2023-07-09T11:48:13;4.97;;;2.90;;
31262;SDS011;17892;52.080;9.006;2023-07-09T11:50:52;6.80;;;3.55;;
31262;SDS011;17892;52.080;9.006;2023-07-09T11:53:31;5.65;;;3.78;;
31262;SDS011;17892;52.080;9.006;2023-07-09T11:56:19;3.70;;;2.80;;
31262;SDS011;17892;52.080;9.006;2023-07-09T11:58:50;3.78;;;2.40;;
31262;SDS011;17892;52.080;9.006;2023-07-09T12:01:21;5.55;;;2.97;;
31262;SDS011;17892;52.080;9.006;2023-07-09T12:03:51;5.15;;;2.85;;
31262;SDS011;17892;52.080;9.006;2023-07-09T12:06:24;5.18;;;3.03;;
31262;SDS011;17892;52.080;9.006;2023-07-09T12:08:53;4.85;;;3.15;;
31262;SDS011;17892;52.080;9.006;2023-07-09T12:11:20;4.35;;;3.30;;
31262;SDS011;17892;52.080;9.006;2023-07-09T12:14:00;5.03;;;3.20;;
31262;SDS011;17892;52.080;9.006;2023-07-09T12:16:38;4.78;;;3.13;;
31262;SDS011;17892;52.080;9.006;2023-07-09T12:19:07;4.40;;;3.42;;
31262;SDS011;17892;52.080;9.006;2023-07-09T12:21:38;4.78;;;3.00;;
31262;SDS011;17892;52.080;9.006;2023-07-09T12:24:25;5.72;;;3.70;;
31262;SDS011;17892;52.080;9.006;2023-07-09T12:27:01;4.13;;;2.70;;
31262;SDS011;17892;52.080;9.006;2023-07-09T12:29:39;5.32;;;3.97;;
31262;SDS011;17892;52.080;9.006;2023-07-09T12:32:10;4.70;;;3.10;;
31262;SDS011;17892;52.080;9.006;2023-07-09T12:37:07;4.35;;;3.00;;
31262;SDS011;17892;52.080;9.006;2023-07-09T12:39:39;4.90;;;3.38;;
31262;SDS011;17892;52.080;9.006;2023-07-09T12:42:05;5.22;;;3.35;;
31262;SDS011;17892;52.080;9.006;2023-07-09T12:44:41;4.25;;;3.20;;
31262;SDS011;17892;52.080;9.006;2023-07-09T12:47:07;4.72;;;3.05;;
31262;SDS011;17892;52.080;9.006;2023-07-09T12:49:40;5.47;;;3.28;;
31262;SDS011;17892;52.080;9.006;2023-07-09T12:52:09;4.53;;;3.53;;
31262;SDS011;17892;52.080;9.006;2023-07-09T12:54:51;4.68;;;2.97;;
31262;SDS011;17892;52.080;9.006;2023-07-09T12:57:22;5.43;;;3.13;;
31262;SDS011;17892;52.080;9.006;2023-07-09T12:59:49;4.40;;;3.28;;
31262;SDS011;17892;52.080;9.006;2023-07-09T13:02:19;5.68;;;3.80;;
31262;SDS011;17892;52.080;9.006;2023-07-09T13:04:48;4.45;;;3.05;;
31262;SDS011;17892;52.080;9.006;2023-07-09T13:09:50;5.30;;;3.40;;
31262;SDS011;17892;52.080;9.006;2023-07-09T13:12:18;4.90;;;3.55;;
31262;SDS011;17892;52.080;9.006;2023-07-09T13:14:52;4.82;;;3.65;;
31262;SDS011;17892;52.080;9.006;2023-07-09T13:17:19;4.47;;;3.45;;
31262;SDS011;17892;52.080;9.006;2023-07-09T13:19:45;4.22;;;3.28;;
31262;SDS011;17892;52.080;9.006;2023-07-09T13:22:12;5.32;;;4.25;;
31262;SDS011;17892;52.080;9.006;2023-07-09T13:24:40;4.68;;;3.63;;
31262;SDS011;17892;52.080;9.006;2023-07-09T13:27:13;4.57;;;3.50;;
31262;SDS011;17892;52.080;9.006;2023-07-09T13:32:10;4.72;;;3.28;;
31262;SDS011;17892;52.080;9.006;2023-07-09T13:34:38;5.50;;;3.45;;
31262;SDS011;17892;52.080;9.006;2023-07-09T13:37:05;5.10;;;3.63;;
31262;SDS011;17892;52.080;9.006;2023-07-09T13:39:40;5.07;;;3.88;;
31262;SDS011;17892;52.080;9.006;2023-07-09T13:42:12;5.05;;;4.00;;
31262;SDS011;17892;52.080;9.006;2023-07-09T13:44:42;5.30;;;3.38;;
31262;SDS011;17892;52.080;9.006;2023-07-09T13:47:14;4.78;;;3.22;;
31262;SDS011;17892;52.080;9.006;2023-07-09T13:49:42;5.43;;;4.32;;
31262;SDS011;17892;52.080;9.006;2023-07-09T13:52:17;5.13;;;3.70;;
31262;SDS011;17892;52.080;9.006;2023-07-09T13:54:46;5.05;;;3.95;;
31262;SDS011;17892;52.080;9.006;2023-07-09T13:57:17;4.60;;;3.17;;
31262;SDS011;17892;52.080;9.006;2023-07-09T13:59:46;5.75;;;3.70;;
31262;SDS011;17892;52.080;9.006;2023-07-09T14:02:28;5.55;;;3.20;;
31262;SDS011;17892;52.080;9.006;2023-07-09T14:04:58;4.88;;;3.50;;
31262;SDS011;17892;52.080;9.006;2023-07-09T14:10:06;4.47;;;3.65;;
31262;SDS011;17892;52.080;9.006;2023-07-09T14:12:38;6.28;;;3.30;;
31262;SDS011;17892;52.080;9.006;2023-07-09T14:15:13;5.28;;;3.80;;
31262;SDS011;17892;52.080;9.006;2023-07-09T14:17:42;5.10;;;4.00;;
31262;SDS011;17892;52.080;9.006;2023-07-09T14:20:10;4.60;;;3.25;;
31262;SDS011;17892;52.080;9.006;2023-07-09T14:22:41;5.65;;;3.60;;
31262;SDS011;17892;52.080;9.006;2023-07-09T14:25:09;6.70;;;4.03;;
31262;SDS011;17892;52.080;9.006;2023-07-09T14:27:50;5.57;;;3.72;;
31262;SDS011;17892;52.080;9.006;2023-07-09T14:30:20;5.47;;;3.50;;
31262;SDS011;17892;52.080;9.006;2023-07-09T14:32:49;4.65;;;3.80;;
31262;SDS011;17892;52.080;9.006;2023-07-09T14:37:44;4.57;;;3.05;;
31262;SDS011;17892;52.080;9.006;2023-07-09T14:40:11;6.70;;;4.80;;
31262;SDS011;17892;52.080;9.006;2023-07-09T14:42:39;6.32;;;4.07;;
31262;SDS011;17892;52.080;9.006;2023-07-09T14:45:09;5.78;;;4.20;;
31262;SDS011;17892;52.080;9.006;2023-07-09T14:47:51;5.40;;;4.00;;
31262;SDS011;17892;52.080;9.006;2023-07-09T14:50:18;4.85;;;3.83;;
31262;SDS011;17892;52.080;9.006;2023-07-09T14:52:46;5.95;;;4.00;;
31262;SDS011;17892;52.080;9.006;2023-07-09T14:55:13;4.97;;;3.45;;
31262;SDS011;17892;52.080;9.006;2023-07-09T14:57:44;5.75;;;3.40;;
31262;SDS011;17892;52.080;9.006;2023-07-09T15:00:15;4.88;;;3.75;;
31262;SDS011;17892;52.080;9.006;2023-07-09T15:02:43;5.82;;;3.60;;
31262;SDS011;17892;52.080;9.006;2023-07-09T15:05:12;6.10;;;3.60;;
31262;SDS011;17892;52.080;9.006;2023-07-09T15:07:46;4.80;;;3.60;;
31262;SDS011;17892;52.080;9.006;2023-07-09T15:10:23;4.80;;;4.03;;
31262;SDS011;17892;52.080;9.006;2023-07-09T15:12:51;6.05;;;4.00;;
31262;SDS011;17892;52.080;9.006;2023-07-09T15:15:25;5.90;;;3.55;;
31262;SDS011;17892;52.080;9.006;2023-07-09T15:17:56;6.30;;;3.63;;
31262;SDS011;17892;52.080;9.006;2023-07-09T15:20:26;5.05;;;3.30;;
31262;SDS011;17892;52.080;9.006;2023-07-09T15:22:55;5.32;;;3.30;;
31262;SDS011;17892;52.080;9.006;2023-07-09T15:25:27;5.97;;;3.40;;
31262;SDS011;17892;52.080;9.006;2023-07-09T15:27:55;4.85;;;3.30;;
31262;SDS011;17892;52.080;9.006;2023-07-09T15:32:49;6.40;;;3.45;;
31262;SDS011;17892;52.080;9.006;2023-07-09T15:35:16;4.57;;;3.38;;
31262;SDS011;17892;52.080;9.006;2023-07-09T15:42:48;4.25;;;3.00;;
31262;SDS011;17892;52.080;9.006;2023-07-09T15:45:17;5.13;;;3.65;;
31262;SDS011;17892;52.080;9.006;2023-07-09T15:47:45;11.48;;;3.97;;
31262;SDS011;17892;52.080;9.006;2023-07-09T15:50:15;5.40;;;3.90;;
31262;SDS011;17892;52.080;9.006;2023-07-09T15:52:48;6.03;;;3.80;;
31262;SDS011;17892;52.080;9.006;2023-07-09T15:55:15;7.32;;;4.00;;
31262;SDS011;17892;52.080;9.006;2023-07-09T15:57:46;4.68;;;3.17;;
31262;SDS011;17892;52.080;9.006;2023-07-09T16:00:15;6.55;;;3.00;;
31262;SDS011;17892;52.080;9.006;2023-07-09T16:02:42;5.47;;;3.83;;
31262;SDS011;17892;52.080;9.006;2023-07-09T16:05:17;6.22;;;3.95;;
31262;SDS011;17892;52.080;9.006;2023-07-09T16:07:52;6.35;;;3.65;;
31262;SDS011;17892;52.080;9.006;2023-07-09T16:12:46;5.35;;;3.70;;
31262;SDS011;17892;52.080;9.006;2023-07-09T16:17:43;5.60;;;3.55;;
31262;SDS011;17892;52.080;9.006;2023-07-09T16:20:10;5.38;;;3.13;;
31262;SDS011;17892;52.080;9.006;2023-07-09T16:22:38;6.57;;;3.33;;
31262;SDS011;17892;52.080;9.006;2023-07-09T16:27:57;5.05;;;3.20;;
31262;SDS011;17892;52.080;9.006;2023-07-09T16:30:25;4.68;;;3.30;;